sensor_id;sensor_type;location;lat;lon;timestamp;P1;durP1;ratioP1;P2;durP2;ratioP2
48935;SDS011;34745;52.276;10.528;2022-08-19T00:01:23;12.25;;;8.75;;
48935;SDS011;34745;52.276;10.528;2022-08-19T00:03:55;13.98;;;8.38;;
48935;SDS011;34745;52.276;10.528;2022-08-19T00:06:23;15.90;;;8.70;;
48935;SDS011;34745;52.276;10.528;2022-08-19T00:08:50;21.50;;;8.80;;
48935;SDS011;34745;52.276;10.528;2022-08-19T00:11:19;11.98;;;8.65;;
48935;SDS011;34745;52.276;10.528;2022-08-19T00:13:51;13.93;;;9.00;;
48935;SDS011;34745;52.276;10.528;2022-08-19T00:16:18;15.57;;;8.55;;
48935;SDS011;34745;52.276;10.528;2022-08-19T00:18:51;13.88;;;8.00;;
48935;SDS011;34745;52.276;10.528;2022-08-19T00:21:19;17.95;;;9.30;;
48935;SDS011;34745;52.276;10.528;2022-08-19T00:23:46;13.98;;;8.45;;
48935;SDS011;34745;52.276;10.528;2022-08-19T00:26:13;11.80;;;8.23;;
48935;SDS011;34745;52.276;10.528;2022-08-19T00:28:42;13.55;;;8.52;;
48935;SDS011;34745;52.276;10.528;2022-08-19T00:31:09;14.48;;;8.77;;
48935;SDS011;34745;52.276;10.528;2022-08-19T00:33:36;13.52;;;8.52;;
48935;SDS011;34745;52.276;10.528;2022-08-19T00:36:04;13.45;;;8.35;;
48935;SDS011;34745;52.276;10.528;2022-08-19T00:38:33;17.27;;;8.38;;
48935;SDS011;34745;52.276;10.528;2022-08-19T00:41:03;13.65;;;8.18;;
48935;SDS011;34745;52.276;10.528;2022-08-19T00:43:31;15.32;;;8.88;;
48935;SDS011;34745;52.276;10.528;2022-08-19T00:45:59;12.20;;;8.13;;
48935;SDS011;34745;52.276;10.528;2022-08-19T00:48:31;16.63;;;8.38;;
48935;SDS011;34745;52.276;10.528;2022-08-19T00:51:00;11.75;;;8.27;;
48935;SDS011;34745;52.276;10.528;2022-08-19T00:53:28;9.15;;;8.02;;
48935;SDS011;34745;52.276;10.528;2022-08-19T00:55:58;12.02;;;7.72;;
48935;SDS011;34745;52.276;10.528;2022-08-19T00:58:28;14.70;;;7.80;;
48935;SDS011;34745;52.276;10.528;2022-08-19T01:01:00;10.10;;;7.63;;
48935;SDS011;34745;52.276;10.528;2022-08-19T01:03:27;9.35;;;7.55;;
48935;SDS011;34745;52.276;10.528;2022-08-19T01:06:14;11.05;;;7.10;;
48935;SDS011;34745;52.276;10.528;2022-08-19T01:08:46;11.05;;;7.35;;
48935;SDS011;34745;52.276;10.528;2022-08-19T01:11:15;12.40;;;7.75;;
48935;SDS011;34745;52.276;10.528;2022-08-19T01:13:43;16.65;;;7.88;;
48935;SDS011;34745;52.276;10.528;2022-08-19T01:16:17;9.32;;;7.32;;
48935;SDS011;34745;52.276;10.528;2022-08-19T01:18:45;13.93;;;8.60;;
48935;SDS011;34745;52.276;10.528;2022-08-19T01:21:15;8.85;;;7.63;;
48935;SDS011;34745;52.276;10.528;2022-08-19T01:23:48;12.25;;;7.97;;
48935;SDS011;34745;52.276;10.528;2022-08-19T01:26:17;10.45;;;7.45;;
48935;SDS011;34745;52.276;10.528;2022-08-19T01:28:46;11.27;;;7.65;;
48935;SDS011;34745;52.276;10.528;2022-08-19T01:31:18;14.52;;;7.32;;
48935;SDS011;34745;52.276;10.528;2022-08-19T01:33:53;11.68;;;7.97;;
48935;SDS011;34745;52.276;10.528;2022-08-19T01:36:22;11.15;;;7.13;;
48935;SDS011;34745;52.276;10.528;2022-08-19T01:38:53;11.00;;;7.80;;
48935;SDS011;34745;52.276;10.528;2022-08-19T01:41:21;10.95;;;7.40;;
48935;SDS011;34745;52.276;10.528;2022-08-19T01:43:49;10.25;;;7.68;;
48935;SDS011;34745;52.276;10.528;2022-08-19T01:46:37;11.98;;;7.50;;
48935;SDS011;34745;52.276;10.528;2022-08-19T01:49:05;14.45;;;7.57;;
48935;SDS011;34745;52.276;10.528;2022-08-19T01:51:34;9.77;;;7.55;;
48935;SDS011;34745;52.276;10.528;2022-08-19T01:54:06;12.60;;;7.63;;
48935;SDS011;34745;52.276;10.528;2022-08-19T01:56:34;12.25;;;7.53;;
48935;SDS011;34745;52.276;10.528;2022-08-19T01:59:02;9.20;;;7.88;;
48935;SDS011;34745;52.276;10.528;2022-08-19T02:01:32;9.80;;;7.65;;
48935;SDS011;34745;52.276;10.528;2022-08-19T02:04:01;11.88;;;7.63;;
48935;SDS011;34745;52.276;10.528;2022-08-19T02:06:28;13.65;;;8.38;;
48935;SDS011;34745;52.276;10.528;2022-08-19T02:08:56;10.95;;;7.85;;
48935;SDS011;34745;52.276;10.528;2022-08-19T02:11:27;9.55;;;7.38;;
48935;SDS011;34745;52.276;10.528;2022-08-19T02:13:57;11.55;;;7.38;;
48935;SDS011;34745;52.276;10.528;2022-08-19T02:20:03;13.95;;;8.40;;
48935;SDS011;34745;52.276;10.528;2022-08-19T02:22:32;12.13;;;8.55;;
48935;SDS011;34745;52.276;10.528;2022-08-19T02:24:59;12.45;;;7.68;;
48935;SDS011;34745;52.276;10.528;2022-08-19T02:27:28;15.45;;;7.60;;
48935;SDS011;34745;52.276;10.528;2022-08-19T02:29:55;12.60;;;8.23;;
48935;SDS011;34745;52.276;10.528;2022-08-19T02:32:22;9.40;;;7.05;;
48935;SDS011;34745;52.276;10.528;2022-08-19T02:34:49;12.05;;;7.22;;
48935;SDS011;34745;52.276;10.528;2022-08-19T02:37:16;11.60;;;7.78;;
48935;SDS011;34745;52.276;10.528;2022-08-19T02:40:02;10.52;;;7.63;;
48935;SDS011;34745;52.276;10.528;2022-08-19T02:42:39;15.30;;;8.38;;
48935;SDS011;34745;52.276;10.528;2022-08-19T02:45:07;15.02;;;7.97;;
48935;SDS011;34745;52.276;10.528;2022-08-19T02:47:35;12.82;;;7.68;;
48935;SDS011;34745;52.276;10.528;2022-08-19T02:50:02;10.02;;;7.15;;
48935;SDS011;34745;52.276;10.528;2022-08-19T02:52:31;9.88;;;7.78;;
48935;SDS011;34745;52.276;10.528;2022-08-19T02:54:58;14.27;;;8.38;;
48935;SDS011;34745;52.276;10.528;2022-08-19T02:57:26;15.63;;;8.20;;
48935;SDS011;34745;52.276;10.528;2022-08-19T02:59:55;17.70;;;8.23;;
48935;SDS011;34745;52.276;10.528;2022-08-19T03:02:22;12.27;;;8.07;;
48935;SDS011;34745;52.276;10.528;2022-08-19T03:04:49;11.88;;;7.68;;
48935;SDS011;34745;52.276;10.528;2022-08-19T03:07:16;11.80;;;8.75;;
48935;SDS011;34745;52.276;10.528;2022-08-19T03:09:44;9.50;;;7.80;;
48935;SDS011;34745;52.276;10.528;2022-08-19T03:12:11;16.05;;;8.23;;
48935;SDS011;34745;52.276;10.528;2022-08-19T03:14:38;16.25;;;8.30;;
48935;SDS011;34745;52.276;10.528;2022-08-19T03:17:07;13.27;;;8.25;;
48935;SDS011;34745;52.276;10.528;2022-08-19T03:19:34;12.02;;;8.55;;
48935;SDS011;34745;52.276;10.528;2022-08-19T03:22:01;11.00;;;8.18;;
48935;SDS011;34745;52.276;10.528;2022-08-19T03:24:30;13.45;;;8.02;;
48935;SDS011;34745;52.276;10.528;2022-08-19T03:26:57;10.32;;;7.50;;
48935;SDS011;34745;52.276;10.528;2022-08-19T03:29:25;15.38;;;7.88;;
48935;SDS011;34745;52.276;10.528;2022-08-19T03:31:57;18.35;;;8.50;;
48935;SDS011;34745;52.276;10.528;2022-08-19T03:34:26;16.25;;;8.13;;
48935;SDS011;34745;52.276;10.528;2022-08-19T03:36:56;14.00;;;8.70;;
48935;SDS011;34745;52.276;10.528;2022-08-19T03:39:24;10.45;;;8.23;;
48935;SDS011;34745;52.276;10.528;2022-08-19T03:41:52;12.45;;;8.30;;
48935;SDS011;34745;52.276;10.528;2022-08-19T03:44:42;16.50;;;7.90;;
48935;SDS011;34745;52.276;10.528;2022-08-19T03:47:11;11.18;;;7.72;;
48935;SDS011;34745;52.276;10.528;2022-08-19T03:49:44;13.15;;;7.75;;
48935;SDS011;34745;52.276;10.528;2022-08-19T03:52:11;16.23;;;8.20;;
48935;SDS011;34745;52.276;10.528;2022-08-19T03:54:38;11.60;;;7.85;;
48935;SDS011;34745;52.276;10.528;2022-08-19T03:57:05;16.30;;;8.27;;
48935;SDS011;34745;52.276;10.528;2022-08-19T03:59:34;11.48;;;7.95;;
48935;SDS011;34745;52.276;10.528;2022-08-19T04:02:06;11.75;;;8.57;;
48935;SDS011;34745;52.276;10.528;2022-08-19T04:04:35;12.98;;;8.35;;
48935;SDS011;34745;52.276;10.528;2022-08-19T04:07:05;12.15;;;7.93;;
48935;SDS011;34745;52.276;10.528;2022-08-19T04:09:33;12.73;;;8.60;;
48935;SDS011;34745;52.276;10.528;2022-08-19T04:12:00;18.40;;;9.45;;
48935;SDS011;34745;52.276;10.528;2022-08-19T04:14:28;11.32;;;8.98;;
48935;SDS011;34745;52.276;10.528;2022-08-19T04:17:00;18.42;;;8.60;;
48935;SDS011;34745;52.276;10.528;2022-08-19T04:19:31;15.15;;;9.73;;
48935;SDS011;34745;52.276;10.528;2022-08-19T04:21:59;10.95;;;9.00;;
48935;SDS011;34745;52.276;10.528;2022-08-19T04:24:27;12.88;;;8.70;;
48935;SDS011;34745;52.276;10.528;2022-08-19T04:26:54;14.35;;;9.05;;
48935;SDS011;34745;52.276;10.528;2022-08-19T04:29:23;21.95;;;9.75;;
48935;SDS011;34745;52.276;10.528;2022-08-19T04:31:52;12.82;;;8.85;;
48935;SDS011;34745;52.276;10.528;2022-08-19T04:34:20;17.15;;;9.20;;
48935;SDS011;34745;52.276;10.528;2022-08-19T04:36:50;12.40;;;8.50;;
48935;SDS011;34745;52.276;10.528;2022-08-19T04:39:19;14.05;;;9.85;;
48935;SDS011;34745;52.276;10.528;2022-08-19T04:41:49;12.82;;;9.23;;
48935;SDS011;34745;52.276;10.528;2022-08-19T04:44:35;13.20;;;8.93;;
48935;SDS011;34745;52.276;10.528;2022-08-19T04:47:11;13.23;;;8.68;;
48935;SDS011;34745;52.276;10.528;2022-08-19T04:49:38;11.63;;;8.40;;
48935;SDS011;34745;52.276;10.528;2022-08-19T04:52:05;11.35;;;8.52;;
48935;SDS011;34745;52.276;10.528;2022-08-19T04:54:32;14.68;;;8.10;;
48935;SDS011;34745;52.276;10.528;2022-08-19T04:57:06;18.23;;;8.80;;
48935;SDS011;34745;52.276;10.528;2022-08-19T04:59:35;11.50;;;8.40;;
48935;SDS011;34745;52.276;10.528;2022-08-19T05:02:04;12.02;;;7.95;;
48935;SDS011;34745;52.276;10.528;2022-08-19T05:04:32;15.18;;;8.20;;
48935;SDS011;34745;52.276;10.528;2022-08-19T05:07:00;11.38;;;8.82;;
48935;SDS011;34745;52.276;10.528;2022-08-19T05:09:27;10.93;;;8.20;;
48935;SDS011;34745;52.276;10.528;2022-08-19T05:12:16;11.85;;;8.13;;
48935;SDS011;34745;52.276;10.528;2022-08-19T05:14:44;15.60;;;9.95;;
48935;SDS011;34745;52.276;10.528;2022-08-19T05:17:12;11.25;;;8.93;;
48935;SDS011;34745;52.276;10.528;2022-08-19T05:19:59;10.82;;;9.13;;
48935;SDS011;34745;52.276;10.528;2022-08-19T05:22:46;13.13;;;8.77;;
48935;SDS011;34745;52.276;10.528;2022-08-19T05:25:15;15.13;;;9.50;;
48935;SDS011;34745;52.276;10.528;2022-08-19T05:27:47;12.02;;;8.38;;
48935;SDS011;34745;52.276;10.528;2022-08-19T05:30:14;11.02;;;8.50;;
48935;SDS011;34745;52.276;10.528;2022-08-19T05:32:43;10.57;;;8.68;;
48935;SDS011;34745;52.276;10.528;2022-08-19T05:35:10;11.50;;;8.95;;
48935;SDS011;34745;52.276;10.528;2022-08-19T05:37:38;10.13;;;7.97;;
48935;SDS011;34745;52.276;10.528;2022-08-19T05:40:06;11.73;;;8.65;;
48935;SDS011;34745;52.276;10.528;2022-08-19T05:42:34;11.82;;;8.93;;
48935;SDS011;34745;52.276;10.528;2022-08-19T05:45:02;13.02;;;8.82;;
48935;SDS011;34745;52.276;10.528;2022-08-19T05:47:30;13.45;;;9.10;;
48935;SDS011;34745;52.276;10.528;2022-08-19T05:49:58;11.15;;;9.38;;
48935;SDS011;34745;52.276;10.528;2022-08-19T05:52:25;13.93;;;9.20;;
48935;SDS011;34745;52.276;10.528;2022-08-19T05:54:55;15.15;;;9.55;;
48935;SDS011;34745;52.276;10.528;2022-08-19T05:57:22;14.15;;;9.55;;
48935;SDS011;34745;52.276;10.528;2022-08-19T05:59:50;12.27;;;8.73;;
48935;SDS011;34745;52.276;10.528;2022-08-19T06:02:25;13.27;;;9.43;;
48935;SDS011;34745;52.276;10.528;2022-08-19T06:04:53;15.50;;;8.93;;
48935;SDS011;34745;52.276;10.528;2022-08-19T06:07:20;15.52;;;9.70;;
48935;SDS011;34745;52.276;10.528;2022-08-19T06:09:47;17.98;;;8.90;;
48935;SDS011;34745;52.276;10.528;2022-08-19T06:12:26;16.95;;;8.65;;
48935;SDS011;34745;52.276;10.528;2022-08-19T06:14:56;13.27;;;8.65;;
48935;SDS011;34745;52.276;10.528;2022-08-19T06:17:28;14.50;;;8.10;;
48935;SDS011;34745;52.276;10.528;2022-08-19T06:19:57;11.73;;;8.65;;
48935;SDS011;34745;52.276;10.528;2022-08-19T06:22:25;11.48;;;8.23;;
48935;SDS011;34745;52.276;10.528;2022-08-19T06:24:53;12.38;;;8.90;;
48935;SDS011;34745;52.276;10.528;2022-08-19T06:27:21;15.23;;;9.00;;
48935;SDS011;34745;52.276;10.528;2022-08-19T06:29:48;10.18;;;7.82;;
48935;SDS011;34745;52.276;10.528;2022-08-19T06:32:16;12.98;;;8.02;;
48935;SDS011;34745;52.276;10.528;2022-08-19T06:34:46;12.40;;;7.90;;
48935;SDS011;34745;52.276;10.528;2022-08-19T06:37:13;14.85;;;8.48;;
48935;SDS011;34745;52.276;10.528;2022-08-19T06:39:41;8.80;;;6.90;;
48935;SDS011;34745;52.276;10.528;2022-08-19T06:42:11;12.85;;;7.95;;
48935;SDS011;34745;52.276;10.528;2022-08-19T06:44:44;13.18;;;7.40;;
48935;SDS011;34745;52.276;10.528;2022-08-19T06:47:15;10.68;;;7.35;;
48935;SDS011;34745;52.276;10.528;2022-08-19T06:49:52;10.75;;;6.97;;
48935;SDS011;34745;52.276;10.528;2022-08-19T06:52:25;12.70;;;6.72;;
48935;SDS011;34745;52.276;10.528;2022-08-19T06:54:51;15.45;;;7.25;;
48935;SDS011;34745;52.276;10.528;2022-08-19T06:57:22;10.57;;;7.15;;
48935;SDS011;34745;52.276;10.528;2022-08-19T06:59:49;11.48;;;6.97;;
48935;SDS011;34745;52.276;10.528;2022-08-19T07:02:17;10.35;;;6.78;;
48935;SDS011;34745;52.276;10.528;2022-08-19T07:04:45;8.80;;;6.57;;
48935;SDS011;34745;52.276;10.528;2022-08-19T07:07:14;10.55;;;6.88;;
48935;SDS011;34745;52.276;10.528;2022-08-19T07:09:46;6.57;;;5.97;;
48935;SDS011;34745;52.276;10.528;2022-08-19T07:12:25;9.75;;;6.65;;
48935;SDS011;34745;52.276;10.528;2022-08-19T07:14:55;9.98;;;6.13;;
48935;SDS011;34745;52.276;10.528;2022-08-19T07:17:23;8.38;;;6.30;;
48935;SDS011;34745;52.276;10.528;2022-08-19T07:19:51;13.95;;;6.13;;
48935;SDS011;34745;52.276;10.528;2022-08-19T07:22:21;7.57;;;5.93;;
48935;SDS011;34745;52.276;10.528;2022-08-19T07:24:49;8.05;;;5.70;;
48935;SDS011;34745;52.276;10.528;2022-08-19T07:27:17;8.70;;;5.97;;
48935;SDS011;34745;52.276;10.528;2022-08-19T07:29:50;10.63;;;6.28;;
48935;SDS011;34745;52.276;10.528;2022-08-19T07:32:22;7.53;;;6.55;;
48935;SDS011;34745;52.276;10.528;2022-08-19T07:34:52;6.97;;;5.63;;
48935;SDS011;34745;52.276;10.528;2022-08-19T07:37:21;7.57;;;5.75;;
48935;SDS011;34745;52.276;10.528;2022-08-19T07:39:47;6.63;;;5.22;;
48935;SDS011;34745;52.276;10.528;2022-08-19T07:42:15;9.52;;;5.82;;
48935;SDS011;34745;52.276;10.528;2022-08-19T07:44:42;8.38;;;6.15;;
48935;SDS011;34745;52.276;10.528;2022-08-19T07:47:16;12.65;;;6.28;;
48935;SDS011;34745;52.276;10.528;2022-08-19T07:50:05;9.18;;;5.88;;
48935;SDS011;34745;52.276;10.528;2022-08-19T07:52:36;8.40;;;5.57;;
48935;SDS011;34745;52.276;10.528;2022-08-19T07:55:06;8.05;;;5.38;;
48935;SDS011;34745;52.276;10.528;2022-08-19T07:57:54;9.45;;;5.70;;
48935;SDS011;34745;52.276;10.528;2022-08-19T08:00:21;11.70;;;5.65;;
48935;SDS011;34745;52.276;10.528;2022-08-19T08:02:50;7.18;;;5.05;;
48935;SDS011;34745;52.276;10.528;2022-08-19T08:05:20;8.38;;;5.28;;
48935;SDS011;34745;52.276;10.528;2022-08-19T08:08:10;5.53;;;5.03;;
48935;SDS011;34745;52.276;10.528;2022-08-19T08:10:58;8.95;;;5.40;;
48935;SDS011;34745;52.276;10.528;2022-08-19T08:13:26;7.90;;;5.32;;
48935;SDS011;34745;52.276;10.528;2022-08-19T08:15:54;10.18;;;7.05;;
48935;SDS011;34745;52.276;10.528;2022-08-19T08:18:21;6.60;;;4.85;;
48935;SDS011;34745;52.276;10.528;2022-08-19T08:20:53;9.02;;;5.50;;
48935;SDS011;34745;52.276;10.528;2022-08-19T08:23:21;6.90;;;5.25;;
48935;SDS011;34745;52.276;10.528;2022-08-19T08:25:48;7.55;;;5.30;;
48935;SDS011;34745;52.276;10.528;2022-08-19T08:28:16;8.18;;;5.18;;
48935;SDS011;34745;52.276;10.528;2022-08-19T08:30:44;7.57;;;5.15;;
48935;SDS011;34745;52.276;10.528;2022-08-19T08:33:17;8.30;;;5.40;;
48935;SDS011;34745;52.276;10.528;2022-08-19T08:35:59;7.30;;;5.03;;
48935;SDS011;34745;52.276;10.528;2022-08-19T08:38:30;7.88;;;5.72;;
48935;SDS011;34745;52.276;10.528;2022-08-19T08:41:05;6.88;;;4.95;;
48935;SDS011;34745;52.276;10.528;2022-08-19T08:43:39;7.35;;;5.32;;
48935;SDS011;34745;52.276;10.528;2022-08-19T08:46:12;8.63;;;5.05;;
48935;SDS011;34745;52.276;10.528;2022-08-19T08:48:59;8.13;;;5.13;;
48935;SDS011;34745;52.276;10.528;2022-08-19T08:51:32;6.32;;;4.72;;
48935;SDS011;34745;52.276;10.528;2022-08-19T08:54:04;8.93;;;4.80;;
48935;SDS011;34745;52.276;10.528;2022-08-19T08:56:36;7.05;;;4.78;;
48935;SDS011;34745;52.276;10.528;2022-08-19T08:59:05;8.45;;;4.65;;
48935;SDS011;34745;52.276;10.528;2022-08-19T09:01:36;6.72;;;4.50;;
48935;SDS011;34745;52.276;10.528;2022-08-19T09:04:03;7.75;;;4.90;;
48935;SDS011;34745;52.276;10.528;2022-08-19T09:06:32;8.95;;;4.65;;
48935;SDS011;34745;52.276;10.528;2022-08-19T09:09:12;7.80;;;4.28;;
48935;SDS011;34745;52.276;10.528;2022-08-19T09:11:51;9.57;;;4.75;;
48935;SDS011;34745;52.276;10.528;2022-08-19T09:14:32;6.22;;;4.55;;
48935;SDS011;34745;52.276;10.528;2022-08-19T09:17:20;5.47;;;4.72;;
48935;SDS011;34745;52.276;10.528;2022-08-19T09:19:58;8.10;;;5.07;;
48935;SDS011;34745;52.276;10.528;2022-08-19T09:22:30;10.68;;;5.35;;
48935;SDS011;34745;52.276;10.528;2022-08-19T09:24:59;10.93;;;5.10;;
48935;SDS011;34745;52.276;10.528;2022-08-19T09:27:26;7.65;;;4.88;;
48935;SDS011;34745;52.276;10.528;2022-08-19T09:30:13;9.32;;;5.00;;
48935;SDS011;34745;52.276;10.528;2022-08-19T09:32:42;15.05;;;5.32;;
48935;SDS011;34745;52.276;10.528;2022-08-19T09:35:10;7.10;;;4.70;;
48935;SDS011;34745;52.276;10.528;2022-08-19T09:37:38;6.32;;;5.25;;
48935;SDS011;34745;52.276;10.528;2022-08-19T09:40:07;7.72;;;6.07;;
48935;SDS011;34745;52.276;10.528;2022-08-19T09:42:37;7.47;;;5.60;;
48935;SDS011;34745;52.276;10.528;2022-08-19T09:45:16;9.55;;;6.07;;
48935;SDS011;34745;52.276;10.528;2022-08-19T09:47:46;7.90;;;5.35;;
48935;SDS011;34745;52.276;10.528;2022-08-19T09:50:14;7.32;;;5.57;;
48935;SDS011;34745;52.276;10.528;2022-08-19T09:52:42;7.82;;;5.82;;
48935;SDS011;34745;52.276;10.528;2022-08-19T09:55:23;12.18;;;6.20;;
48935;SDS011;34745;52.276;10.528;2022-08-19T09:57:58;7.47;;;5.95;;
48935;SDS011;34745;52.276;10.528;2022-08-19T10:00:26;9.48;;;6.65;;
48935;SDS011;34745;52.276;10.528;2022-08-19T10:02:53;14.07;;;6.88;;
48935;SDS011;34745;52.276;10.528;2022-08-19T10:05:20;8.55;;;6.28;;
48935;SDS011;34745;52.276;10.528;2022-08-19T10:08:07;10.52;;;6.65;;
48935;SDS011;34745;52.276;10.528;2022-08-19T10:10:40;9.25;;;6.47;;
48935;SDS011;34745;52.276;10.528;2022-08-19T10:13:13;11.18;;;7.05;;
48935;SDS011;34745;52.276;10.528;2022-08-19T10:15:42;9.18;;;7.03;;
48935;SDS011;34745;52.276;10.528;2022-08-19T10:18:13;11.38;;;6.80;;
48935;SDS011;34745;52.276;10.528;2022-08-19T10:20:42;13.38;;;6.75;;
48935;SDS011;34745;52.276;10.528;2022-08-19T10:23:17;11.38;;;6.35;;
48935;SDS011;34745;52.276;10.528;2022-08-19T10:25:48;11.80;;;6.55;;
48935;SDS011;34745;52.276;10.528;2022-08-19T10:28:16;7.65;;;6.45;;
48935;SDS011;34745;52.276;10.528;2022-08-19T10:30:45;14.73;;;6.45;;
48935;SDS011;34745;52.276;10.528;2022-08-19T10:33:13;8.63;;;7.35;;
48935;SDS011;34745;52.276;10.528;2022-08-19T10:36:01;7.88;;;7.03;;
48935;SDS011;34745;52.276;10.528;2022-08-19T10:38:30;7.47;;;6.10;;
48935;SDS011;34745;52.276;10.528;2022-08-19T10:41:07;7.05;;;5.45;;
48935;SDS011;34745;52.276;10.528;2022-08-19T10:43:34;6.03;;;5.47;;
48935;SDS011;34745;52.276;10.528;2022-08-19T10:46:05;7.68;;;5.43;;
48935;SDS011;34745;52.276;10.528;2022-08-19T10:48:39;8.82;;;5.60;;
48935;SDS011;34745;52.276;10.528;2022-08-19T10:51:07;8.90;;;6.22;;
48935;SDS011;34745;52.276;10.528;2022-08-19T10:53:53;7.13;;;5.82;;
48935;SDS011;34745;52.276;10.528;2022-08-19T10:56:23;12.00;;;5.40;;
48935;SDS011;34745;52.276;10.528;2022-08-19T10:59:09;6.22;;;5.35;;
48935;SDS011;34745;52.276;10.528;2022-08-19T11:01:36;6.50;;;5.47;;
48935;SDS011;34745;52.276;10.528;2022-08-19T11:04:03;7.80;;;5.72;;
48935;SDS011;34745;52.276;10.528;2022-08-19T11:06:31;6.75;;;4.78;;
48935;SDS011;34745;52.276;10.528;2022-08-19T11:08:58;8.85;;;5.47;;
48935;SDS011;34745;52.276;10.528;2022-08-19T11:11:27;5.78;;;5.13;;
48935;SDS011;34745;52.276;10.528;2022-08-19T11:13:55;7.10;;;5.50;;
48935;SDS011;34745;52.276;10.528;2022-08-19T11:16:22;9.32;;;6.22;;
48935;SDS011;34745;52.276;10.528;2022-08-19T11:18:52;11.63;;;8.25;;
48935;SDS011;34745;52.276;10.528;2022-08-19T11:21:21;8.65;;;6.93;;
48935;SDS011;34745;52.276;10.528;2022-08-19T11:23:51;9.82;;;7.35;;
48935;SDS011;34745;52.276;10.528;2022-08-19T11:26:20;9.65;;;6.65;;
48935;SDS011;34745;52.276;10.528;2022-08-19T11:28:49;7.25;;;6.47;;
48935;SDS011;34745;52.276;10.528;2022-08-19T11:31:21;6.60;;;5.78;;
48935;SDS011;34745;52.276;10.528;2022-08-19T11:33:55;7.75;;;5.65;;
48935;SDS011;34745;52.276;10.528;2022-08-19T11:36:23;7.47;;;6.72;;
48935;SDS011;34745;52.276;10.528;2022-08-19T11:38:50;6.65;;;6.00;;
48935;SDS011;34745;52.276;10.528;2022-08-19T11:41:18;7.55;;;5.57;;
48935;SDS011;34745;52.276;10.528;2022-08-19T11:43:46;6.82;;;5.68;;
48935;SDS011;34745;52.276;10.528;2022-08-19T11:46:15;9.27;;;5.95;;
48935;SDS011;34745;52.276;10.528;2022-08-19T11:48:43;7.30;;;6.60;;
48935;SDS011;34745;52.276;10.528;2022-08-19T11:51:11;7.45;;;6.70;;
48935;SDS011;34745;52.276;10.528;2022-08-19T11:53:40;7.50;;;6.80;;
48935;SDS011;34745;52.276;10.528;2022-08-19T11:56:08;8.98;;;6.28;;
48935;SDS011;34745;52.276;10.528;2022-08-19T11:58:36;10.75;;;6.07;;
48935;SDS011;34745;52.276;10.528;2022-08-19T12:01:05;10.00;;;6.05;;
48935;SDS011;34745;52.276;10.528;2022-08-19T12:03:35;8.00;;;6.38;;
48935;SDS011;34745;52.276;10.528;2022-08-19T12:06:04;11.32;;;5.70;;
48935;SDS011;34745;52.276;10.528;2022-08-19T12:08:31;7.78;;;6.40;;
48935;SDS011;34745;52.276;10.528;2022-08-19T12:10:58;8.13;;;6.18;;
48935;SDS011;34745;52.276;10.528;2022-08-19T12:13:27;8.75;;;4.97;;
48935;SDS011;34745;52.276;10.528;2022-08-19T12:15:56;7.80;;;5.05;;
48935;SDS011;34745;52.276;10.528;2022-08-19T12:18:24;5.32;;;4.82;;
48935;SDS011;34745;52.276;10.528;2022-08-19T12:20:53;5.75;;;4.20;;
48935;SDS011;34745;52.276;10.528;2022-08-19T12:23:24;5.47;;;4.90;;
48935;SDS011;34745;52.276;10.528;2022-08-19T12:25:50;5.03;;;4.53;;
48935;SDS011;34745;52.276;10.528;2022-08-19T12:28:18;5.22;;;4.55;;
48935;SDS011;34745;52.276;10.528;2022-08-19T12:30:46;6.03;;;4.32;;
48935;SDS011;34745;52.276;10.528;2022-08-19T12:33:14;10.45;;;4.20;;
48935;SDS011;34745;52.276;10.528;2022-08-19T12:35:41;6.60;;;4.50;;
48935;SDS011;34745;52.276;10.528;2022-08-19T12:38:12;5.88;;;4.63;;
48935;SDS011;34745;52.276;10.528;2022-08-19T12:40:39;7.38;;;4.10;;
48935;SDS011;34745;52.276;10.528;2022-08-19T12:43:07;9.88;;;3.90;;
48935;SDS011;34745;52.276;10.528;2022-08-19T12:45:41;6.22;;;4.43;;
48935;SDS011;34745;52.276;10.528;2022-08-19T12:48:27;6.20;;;4.47;;
48935;SDS011;34745;52.276;10.528;2022-08-19T12:51:01;5.85;;;4.15;;
48935;SDS011;34745;52.276;10.528;2022-08-19T12:56:52;6.03;;;3.85;;
48935;SDS011;34745;52.276;10.528;2022-08-19T12:59:32;4.30;;;3.70;;
48935;SDS011;34745;52.276;10.528;2022-08-19T13:02:07;4.50;;;4.20;;
48935;SDS011;34745;52.276;10.528;2022-08-19T13:04:40;5.28;;;4.45;;
48935;SDS011;34745;52.276;10.528;2022-08-19T13:07:16;5.60;;;4.25;;
48935;SDS011;34745;52.276;10.528;2022-08-19T13:09:49;3.97;;;3.40;;
48935;SDS011;34745;52.276;10.528;2022-08-19T13:12:25;4.90;;;3.60;;
48935;SDS011;34745;52.276;10.528;2022-08-19T13:14:55;3.78;;;3.38;;
48935;SDS011;34745;52.276;10.528;2022-08-19T13:17:27;6.63;;;3.20;;
48935;SDS011;34745;52.276;10.528;2022-08-19T13:19:56;3.55;;;3.20;;
48935;SDS011;34745;52.276;10.528;2022-08-19T13:22:29;6.20;;;3.40;;
48935;SDS011;34745;52.276;10.528;2022-08-19T13:25:09;3.60;;;3.33;;
48935;SDS011;34745;52.276;10.528;2022-08-19T13:27:55;6.90;;;3.97;;
48935;SDS011;34745;52.276;10.528;2022-08-19T13:30:31;4.45;;;3.63;;
48935;SDS011;34745;52.276;10.528;2022-08-19T13:33:21;4.20;;;3.80;;
48935;SDS011;34745;52.276;10.528;2022-08-19T13:35:56;3.20;;;3.00;;
48935;SDS011;34745;52.276;10.528;2022-08-19T13:38:27;4.30;;;3.30;;
48935;SDS011;34745;52.276;10.528;2022-08-19T13:41:07;4.43;;;3.28;;
48935;SDS011;34745;52.276;10.528;2022-08-19T13:43:43;3.47;;;3.17;;
48935;SDS011;34745;52.276;10.528;2022-08-19T13:46:19;3.45;;;3.15;;
48935;SDS011;34745;52.276;10.528;2022-08-19T13:48:52;3.78;;;3.35;;
48935;SDS011;34745;52.276;10.528;2022-08-19T13:51:24;3.78;;;3.47;;
48935;SDS011;34745;52.276;10.528;2022-08-19T13:53:55;8.30;;;3.15;;
48935;SDS011;34745;52.276;10.528;2022-08-19T13:56:28;4.97;;;3.55;;
48935;SDS011;34745;52.276;10.528;2022-08-19T13:58:58;5.38;;;3.10;;
48935;SDS011;34745;52.276;10.528;2022-08-19T14:01:27;8.35;;;3.20;;
48935;SDS011;34745;52.276;10.528;2022-08-19T14:04:08;6.20;;;3.80;;
48935;SDS011;34745;52.276;10.528;2022-08-19T14:06:54;3.80;;;3.50;;
48935;SDS011;34745;52.276;10.528;2022-08-19T14:09:26;4.78;;;3.80;;
48935;SDS011;34745;52.276;10.528;2022-08-19T14:15:43;3.58;;;3.10;;
48935;SDS011;34745;52.276;10.528;2022-08-19T14:18:48;3.50;;;3.00;;
48935;SDS011;34745;52.276;10.528;2022-08-19T14:21:55;3.35;;;3.13;;
48935;SDS011;34745;52.276;10.528;2022-08-19T14:24:51;4.55;;;3.60;;
48935;SDS011;34745;52.276;10.528;2022-08-19T14:32:05;3.60;;;3.25;;
48935;SDS011;34745;52.276;10.528;2022-08-19T14:35:46;4.95;;;3.60;;
48935;SDS011;34745;52.276;10.528;2022-08-19T14:39:17;4.15;;;3.30;;
48935;SDS011;34745;52.276;10.528;2022-08-19T14:42:35;7.05;;;3.30;;
48935;SDS011;34745;52.276;10.528;2022-08-19T14:46:00;3.58;;;3.30;;
48935;SDS011;34745;52.276;10.528;2022-08-19T14:49:05;3.25;;;2.92;;
48935;SDS011;34745;52.276;10.528;2022-08-19T14:52:16;4.00;;;3.70;;
48935;SDS011;34745;52.276;10.528;2022-08-19T14:55:36;5.18;;;3.30;;
48935;SDS011;34745;52.276;10.528;2022-08-19T15:01:34;4.68;;;3.25;;
48935;SDS011;34745;52.276;10.528;2022-08-19T15:04:55;3.60;;;3.30;;
48935;SDS011;34745;52.276;10.528;2022-08-19T15:08:07;3.95;;;3.40;;
48935;SDS011;34745;52.276;10.528;2022-08-19T15:13:50;3.92;;;2.80;;
48935;SDS011;34745;52.276;10.528;2022-08-19T15:16:42;4.45;;;3.25;;
48935;SDS011;34745;52.276;10.528;2022-08-19T15:19:26;3.10;;;2.90;;
48935;SDS011;34745;52.276;10.528;2022-08-19T15:22:00;6.03;;;2.92;;